sensor_id;sensor_type;location;lat;lon;timestamp;pressure;altitude;pressure_sealevel;temperature
41940;BMP180;23057;48.554;14.454;2022-11-20T00:00:31;93036.00;;;7.40
41940;BMP180;23057;48.554;14.454;2022-11-20T00:03:02;93030.00;;;7.40
41940;BMP180;23057;48.554;14.454;2022-11-20T00:05:33;93036.00;;;7.40
41940;BMP180;23057;48.554;14.454;2022-11-20T00:08:05;93023.00;;;7.40
41940;BMP180;23057;48.554;14.454;2022-11-20T00:10:40;93020.00;;;7.30
41940;BMP180;23057;48.554;14.454;2022-11-20T00:13:11;93023.00;;;7.30
41940;BMP180;23057;48.554;14.454;2022-11-20T00:15:42;93030.00;;;7.30
41940;BMP180;23057;48.554;14.454;2022-11-20T00:18:12;93022.00;;;7.30
41940;BMP180;23057;48.554;14.454;2022-11-20T00:20:43;93024.00;;;7.20
41940;BMP180;23057;48.554;14.454;2022-11-20T00:23:14;93019.00;;;7.20
41940;BMP180;23057;48.554;14.454;2022-11-20T00:25:45;93025.00;;;7.20
41940;BMP180;23057;48.554;14.454;2022-11-20T00:28:16;93022.00;;;7.20
41940;BMP180;23057;48.554;14.454;2022-11-20T00:30:47;93024.00;;;7.20
41940;BMP180;23057;48.554;14.454;2022-11-20T00:33:17;93022.00;;;7.20
41940;BMP180;23057;48.554;14.454;2022-11-20T00:35:48;93021.00;;;7.20
41940;BMP180;23057;48.554;14.454;2022-11-20T00:38:19;93025.00;;;7.20
41940;BMP180;23057;48.554;14.454;2022-11-20T00:40:59;93024.00;;;7.20
41940;BMP180;23057;48.554;14.454;2022-11-20T00:43:31;93022.00;;;7.20
41940;BMP180;23057;48.554;14.454;2022-11-20T00:46:13;93026.00;;;7.20
41940;BMP180;23057;48.554;14.454;2022-11-20T00:48:46;93026.00;;;7.20
41940;BMP180;23057;48.554;14.454;2022-11-20T00:51:21;93025.00;;;7.20
41940;BMP180;23057;48.554;14.454;2022-11-20T00:53:56;93032.00;;;7.20
41940;BMP180;23057;48.554;14.454;2022-11-20T00:56:28;93020.00;;;7.20
41940;BMP180;23057;48.554;14.454;2022-11-20T00:59:00;93026.00;;;7.20
41940;BMP180;23057;48.554;14.454;2022-11-20T01:01:31;93025.00;;;7.20
41940;BMP180;23057;48.554;14.454;2022-11-20T01:04:03;93025.00;;;7.20
41940;BMP180;23057;48.554;14.454;2022-11-20T01:06:36;93034.00;;;7.20
41940;BMP180;23057;48.554;14.454;2022-11-20T01:09:14;93033.00;;;7.20
41940;BMP180;23057;48.554;14.454;2022-11-20T01:11:45;93037.00;;;7.10
41940;BMP180;23057;48.554;14.454;2022-11-20T01:14:19;93044.00;;;7.10
41940;BMP180;23057;48.554;14.454;2022-11-20T01:16:51;93043.00;;;7.10
41940;BMP180;23057;48.554;14.454;2022-11-20T01:19:23;93041.00;;;7.10
41940;BMP180;23057;48.554;14.454;2022-11-20T01:21:54;93045.00;;;7.10
41940;BMP180;23057;48.554;14.454;2022-11-20T01:24:25;93043.00;;;7.10
41940;BMP180;23057;48.554;14.454;2022-11-20T01:26:56;93043.00;;;7.10
41940;BMP180;23057;48.554;14.454;2022-11-20T01:29:27;93037.00;;;7.10
41940;BMP180;23057;48.554;14.454;2022-11-20T01:31:58;93039.00;;;7.10
41940;BMP180;23057;48.554;14.454;2022-11-20T01:34:29;93034.00;;;7.10
41940;BMP180;23057;48.554;14.454;2022-11-20T01:37:00;93044.00;;;7.10
41940;BMP180;23057;48.554;14.454;2022-11-20T01:39:31;93037.00;;;7.10
41940;BMP180;23057;48.554;14.454;2022-11-20T01:42:02;93040.00;;;7.10
41940;BMP180;23057;48.554;14.454;2022-11-20T01:44:58;93031.00;;;7.00
41940;BMP180;23057;48.554;14.454;2022-11-20T01:47:44;93045.00;;;7.00
41940;BMP180;23057;48.554;14.454;2022-11-20T01:50:23;93042.00;;;7.00
41940;BMP180;23057;48.554;14.454;2022-11-20T01:53:02;93035.00;;;7.10
41940;BMP180;23057;48.554;14.454;2022-11-20T01:55:48;93035.00;;;7.10
41940;BMP180;23057;48.554;14.454;2022-11-20T01:58:33;93044.00;;;7.10
41940;BMP180;23057;48.554;14.454;2022-11-20T02:01:08;93039.00;;;7.10
41940;BMP180;23057;48.554;14.454;2022-11-20T02:03:40;93044.00;;;7.10
41940;BMP180;23057;48.554;14.454;2022-11-20T02:06:24;93040.00;;;7.10
41940;BMP180;23057;48.554;14.454;2022-11-20T02:08:57;93033.00;;;7.10
41940;BMP180;23057;48.554;14.454;2022-11-20T02:11:31;93032.00;;;7.10
41940;BMP180;23057;48.554;14.454;2022-11-20T02:14:02;93032.00;;;7.10
41940;BMP180;23057;48.554;14.454;2022-11-20T02:16:39;93031.00;;;7.10
41940;BMP180;23057;48.554;14.454;2022-11-20T02:19:29;93045.00;;;7.10
41940;BMP180;23057;48.554;14.454;2022-11-20T02:22:12;93038.00;;;7.10
41940;BMP180;23057;48.554;14.454;2022-11-20T02:24:51;93040.00;;;7.10
41940;BMP180;23057;48.554;14.454;2022-11-20T02:27:21;93047.00;;;7.20
41940;BMP180;23057;48.554;14.454;2022-11-20T02:30:02;93046.00;;;7.10
41940;BMP180;23057;48.554;14.454;2022-11-20T02:32:38;93040.00;;;7.20
41940;BMP180;23057;48.554;14.454;2022-11-20T02:37:56;93044.00;;;7.20
41940;BMP180;23057;48.554;14.454;2022-11-20T02:40:28;93038.00;;;7.20
41940;BMP180;23057;48.554;14.454;2022-11-20T02:42:59;93028.00;;;7.20
41940;BMP180;23057;48.554;14.454;2022-11-20T02:45:30;93027.00;;;7.20
41940;BMP180;23057;48.554;14.454;2022-11-20T02:48:02;93039.00;;;7.30
41940;BMP180;23057;48.554;14.454;2022-11-20T02:50:37;93017.00;;;7.20
41940;BMP180;23057;48.554;14.454;2022-11-20T02:53:09;93026.00;;;7.30
41940;BMP180;23057;48.554;14.454;2022-11-20T02:55:40;93019.00;;;7.30
41940;BMP180;23057;48.554;14.454;2022-11-20T02:58:11;93026.00;;;7.30
41940;BMP180;23057;48.554;14.454;2022-11-20T03:00:42;93019.00;;;7.30
41940;BMP180;23057;48.554;14.454;2022-11-20T03:03:12;93020.00;;;7.20
41940;BMP180;23057;48.554;14.454;2022-11-20T03:05:43;93008.00;;;7.20
41940;BMP180;23057;48.554;14.454;2022-11-20T03:08:14;93007.00;;;7.20
41940;BMP180;23057;48.554;14.454;2022-11-20T03:10:45;93001.00;;;7.20
41940;BMP180;23057;48.554;14.454;2022-11-20T03:13:16;93005.00;;;7.30
41940;BMP180;23057;48.554;14.454;2022-11-20T03:15:47;93000.00;;;7.20
41940;BMP180;23057;48.554;14.454;2022-11-20T03:18:17;92998.00;;;7.20
41940;BMP180;23057;48.554;14.454;2022-11-20T03:20:48;93000.00;;;7.30
41940;BMP180;23057;48.554;14.454;2022-11-20T03:23:19;93004.00;;;7.30
41940;BMP180;23057;48.554;14.454;2022-11-20T03:25:50;93004.00;;;7.40
41940;BMP180;23057;48.554;14.454;2022-11-20T03:28:21;93006.00;;;7.40
41940;BMP180;23057;48.554;14.454;2022-11-20T03:30:52;93008.00;;;7.40
41940;BMP180;23057;48.554;14.454;2022-11-20T03:33:23;93011.00;;;7.50
41940;BMP180;23057;48.554;14.454;2022-11-20T03:35:53;93015.00;;;7.40
41940;BMP180;23057;48.554;14.454;2022-11-20T03:38:24;93019.00;;;7.50
41940;BMP180;23057;48.554;14.454;2022-11-20T03:41:00;93016.00;;;7.50
41940;BMP180;23057;48.554;14.454;2022-11-20T03:43:35;93013.00;;;7.50
41940;BMP180;23057;48.554;14.454;2022-11-20T03:46:07;93018.00;;;7.50
41940;BMP180;23057;48.554;14.454;2022-11-20T03:48:38;93011.00;;;7.40
41940;BMP180;23057;48.554;14.454;2022-11-20T03:51:14;93022.00;;;7.40
41940;BMP180;23057;48.554;14.454;2022-11-20T03:53:49;93019.00;;;7.30
41940;BMP180;23057;48.554;14.454;2022-11-20T03:56:28;93031.00;;;7.30
41940;BMP180;23057;48.554;14.454;2022-11-20T03:59:01;93019.00;;;7.30
41940;BMP180;23057;48.554;14.454;2022-11-20T04:01:36;93018.00;;;7.30
41940;BMP180;23057;48.554;14.454;2022-11-20T04:04:07;93027.00;;;7.30
41940;BMP180;23057;48.554;14.454;2022-11-20T04:06:39;93016.00;;;7.30
41940;BMP180;23057;48.554;14.454;2022-11-20T04:09:09;93025.00;;;7.30
41940;BMP180;23057;48.554;14.454;2022-11-20T04:11:41;93027.00;;;7.30
41940;BMP180;23057;48.554;14.454;2022-11-20T04:14:16;93030.00;;;7.40
41940;BMP180;23057;48.554;14.454;2022-11-20T04:16:47;93027.00;;;7.50
41940;BMP180;23057;48.554;14.454;2022-11-20T04:19:18;93022.00;;;7.50
41940;BMP180;23057;48.554;14.454;2022-11-20T04:21:48;93034.00;;;7.50
41940;BMP180;23057;48.554;14.454;2022-11-20T04:24:19;93024.00;;;7.60
41940;BMP180;23057;48.554;14.454;2022-11-20T04:26:50;93028.00;;;7.60
41940;BMP180;23057;48.554;14.454;2022-11-20T04:29:21;93031.00;;;7.70
41940;BMP180;23057;48.554;14.454;2022-11-20T04:31:52;93022.00;;;7.80
41940;BMP180;23057;48.554;14.454;2022-11-20T04:34:22;93028.00;;;7.80
41940;BMP180;23057;48.554;14.454;2022-11-20T04:36:53;93035.00;;;7.80
41940;BMP180;23057;48.554;14.454;2022-11-20T04:39:24;93033.00;;;7.80
41940;BMP180;23057;48.554;14.454;2022-11-20T04:41:55;93034.00;;;7.80
41940;BMP180;23057;48.554;14.454;2022-11-20T04:44:44;93031.00;;;7.80
41940;BMP180;23057;48.554;14.454;2022-11-20T04:47:15;93027.00;;;7.80
41940;BMP180;23057;48.554;14.454;2022-11-20T04:49:46;93021.00;;;7.80
41940;BMP180;23057;48.554;14.454;2022-11-20T04:52:17;93020.00;;;7.80
41940;BMP180;23057;48.554;14.454;2022-11-20T04:54:48;93025.00;;;7.80
41940;BMP180;23057;48.554;14.454;2022-11-20T04:57:20;93020.00;;;7.80
41940;BMP180;23057;48.554;14.454;2022-11-20T04:59:51;93024.00;;;7.80
41940;BMP180;23057;48.554;14.454;2022-11-20T05:02:22;93020.00;;;7.80
41940;BMP180;23057;48.554;14.454;2022-11-20T05:04:53;93011.00;;;7.80
41940;BMP180;23057;48.554;14.454;2022-11-20T05:07:24;93021.00;;;7.80
41940;BMP180;23057;48.554;14.454;2022-11-20T05:09:55;93016.00;;;7.70
41940;BMP180;23057;48.554;14.454;2022-11-20T05:12:26;93023.00;;;7.70
41940;BMP180;23057;48.554;14.454;2022-11-20T05:14:57;93014.00;;;7.70
41940;BMP180;23057;48.554;14.454;2022-11-20T05:17:27;93025.00;;;7.70
41940;BMP180;23057;48.554;14.454;2022-11-20T05:19:58;93025.00;;;7.70
41940;BMP180;23057;48.554;14.454;2022-11-20T05:22:29;93025.00;;;7.60
41940;BMP180;23057;48.554;14.454;2022-11-20T05:25:00;93021.00;;;7.60
41940;BMP180;23057;48.554;14.454;2022-11-20T05:27:31;93027.00;;;7.60
41940;BMP180;23057;48.554;14.454;2022-11-20T05:30:03;93026.00;;;7.50
41940;BMP180;23057;48.554;14.454;2022-11-20T05:32:35;93025.00;;;7.50
41940;BMP180;23057;48.554;14.454;2022-11-20T05:35:06;93024.00;;;7.50
41940;BMP180;23057;48.554;14.454;2022-11-20T05:37:38;93019.00;;;7.40
41940;BMP180;23057;48.554;14.454;2022-11-20T05:40:09;93023.00;;;7.40
41940;BMP180;23057;48.554;14.454;2022-11-20T05:42:41;93025.00;;;7.40
41940;BMP180;23057;48.554;14.454;2022-11-20T05:45:14;93026.00;;;7.40
41940;BMP180;23057;48.554;14.454;2022-11-20T05:47:45;93031.00;;;7.30
41940;BMP180;23057;48.554;14.454;2022-11-20T05:50:16;93024.00;;;7.30
41940;BMP180;23057;48.554;14.454;2022-11-20T05:52:46;93028.00;;;7.30
41940;BMP180;23057;48.554;14.454;2022-11-20T05:55:17;93030.00;;;7.30
41940;BMP180;23057;48.554;14.454;2022-11-20T05:57:48;93034.00;;;7.30
41940;BMP180;23057;48.554;14.454;2022-11-20T06:00:19;93030.00;;;7.30
41940;BMP180;23057;48.554;14.454;2022-11-20T06:02:50;93031.00;;;7.30
41940;BMP180;23057;48.554;14.454;2022-11-20T06:05:21;93030.00;;;7.30
41940;BMP180;23057;48.554;14.454;2022-11-20T06:07:52;93041.00;;;7.20
41940;BMP180;23057;48.554;14.454;2022-11-20T06:10:23;93039.00;;;7.20
41940;BMP180;23057;48.554;14.454;2022-11-20T06:12:57;93035.00;;;7.20
41940;BMP180;23057;48.554;14.454;2022-11-20T06:15:29;93035.00;;;7.20
41940;BMP180;23057;48.554;14.454;2022-11-20T06:17:59;93036.00;;;7.20
41940;BMP180;23057;48.554;14.454;2022-11-20T06:20:30;93035.00;;;7.20
41940;BMP180;23057;48.554;14.454;2022-11-20T06:23:01;93035.00;;;7.20
41940;BMP180;23057;48.554;14.454;2022-11-20T06:25:32;93039.00;;;7.20
41940;BMP180;23057;48.554;14.454;2022-11-20T06:28:03;93045.00;;;7.20
41940;BMP180;23057;48.554;14.454;2022-11-20T06:30:35;93043.00;;;7.20
41940;BMP180;23057;48.554;14.454;2022-11-20T06:33:06;93049.00;;;7.10
41940;BMP180;23057;48.554;14.454;2022-11-20T06:35:37;93050.00;;;7.20
41940;BMP180;23057;48.554;14.454;2022-11-20T06:38:08;93052.00;;;7.20
41940;BMP180;23057;48.554;14.454;2022-11-20T06:40:42;93043.00;;;7.20
41940;BMP180;23057;48.554;14.454;2022-11-20T06:43:13;93057.00;;;7.20
41940;BMP180;23057;48.554;14.454;2022-11-20T06:45:44;93052.00;;;7.20
41940;BMP180;23057;48.554;14.454;2022-11-20T06:48:15;93057.00;;;7.20
41940;BMP180;23057;48.554;14.454;2022-11-20T06:50:46;93064.00;;;7.30
41940;BMP180;23057;48.554;14.454;2022-11-20T06:53:18;93063.00;;;7.30
41940;BMP180;23057;48.554;14.454;2022-11-20T06:55:50;93075.00;;;7.30
41940;BMP180;23057;48.554;14.454;2022-11-20T06:58:22;93079.00;;;7.30
41940;BMP180;23057;48.554;14.454;2022-11-20T07:00:53;93081.00;;;7.40
41940;BMP180;23057;48.554;14.454;2022-11-20T07:03:24;93081.00;;;7.40
41940;BMP180;23057;48.554;14.454;2022-11-20T07:05:56;93078.00;;;7.40
41940;BMP180;23057;48.554;14.454;2022-11-20T07:08:29;93076.00;;;7.40
41940;BMP180;23057;48.554;14.454;2022-11-20T07:11:02;93084.00;;;7.40
41940;BMP180;23057;48.554;14.454;2022-11-20T07:13:35;93077.00;;;7.40
41940;BMP180;23057;48.554;14.454;2022-11-20T07:16:07;93081.00;;;7.40
41940;BMP180;23057;48.554;14.454;2022-11-20T07:18:38;93081.00;;;7.30
41940;BMP180;23057;48.554;14.454;2022-11-20T07:21:10;93082.00;;;7.30
41940;BMP180;23057;48.554;14.454;2022-11-20T07:23:41;93090.00;;;7.40
41940;BMP180;23057;48.554;14.454;2022-11-20T07:26:12;93074.00;;;7.40
41940;BMP180;23057;48.554;14.454;2022-11-20T07:28:45;93077.00;;;7.40
41940;BMP180;23057;48.554;14.454;2022-11-20T07:31:16;93073.00;;;7.40
41940;BMP180;23057;48.554;14.454;2022-11-20T07:33:47;93080.00;;;7.50
41940;BMP180;23057;48.554;14.454;2022-11-20T07:36:18;93083.00;;;7.50
41940;BMP180;23057;48.554;14.454;2022-11-20T07:38:48;93086.00;;;7.60
41940;BMP180;23057;48.554;14.454;2022-11-20T07:41:19;93087.00;;;7.70
41940;BMP180;23057;48.554;14.454;2022-11-20T07:43:50;93093.00;;;7.70
41940;BMP180;23057;48.554;14.454;2022-11-20T07:46:21;93093.00;;;7.80
41940;BMP180;23057;48.554;14.454;2022-11-20T07:48:52;93082.00;;;7.80
41940;BMP180;23057;48.554;14.454;2022-11-20T07:51:23;93085.00;;;7.80
41940;BMP180;23057;48.554;14.454;2022-11-20T07:53:54;93094.00;;;7.80
41940;BMP180;23057;48.554;14.454;2022-11-20T07:56:25;93089.00;;;7.80
41940;BMP180;23057;48.554;14.454;2022-11-20T07:58:56;93086.00;;;7.90
41940;BMP180;23057;48.554;14.454;2022-11-20T08:01:27;93086.00;;;7.90
41940;BMP180;23057;48.554;14.454;2022-11-20T08:03:58;93084.00;;;7.90
41940;BMP180;23057;48.554;14.454;2022-11-20T08:06:29;93098.00;;;7.80
41940;BMP180;23057;48.554;14.454;2022-11-20T08:09:00;93100.00;;;7.80
41940;BMP180;23057;48.554;14.454;2022-11-20T08:11:30;93102.00;;;7.80
41940;BMP180;23057;48.554;14.454;2022-11-20T08:14:20;93096.00;;;7.80
41940;BMP180;23057;48.554;14.454;2022-11-20T08:16:51;93095.00;;;7.90
41940;BMP180;23057;48.554;14.454;2022-11-20T08:19:22;93102.00;;;7.90
41940;BMP180;23057;48.554;14.454;2022-11-20T08:21:52;93097.00;;;7.90
41940;BMP180;23057;48.554;14.454;2022-11-20T08:24:23;93095.00;;;8.00
41940;BMP180;23057;48.554;14.454;2022-11-20T08:26:59;93103.00;;;8.00
41940;BMP180;23057;48.554;14.454;2022-11-20T08:29:30;93101.00;;;8.10
41940;BMP180;23057;48.554;14.454;2022-11-20T08:32:01;93095.00;;;8.20
41940;BMP180;23057;48.554;14.454;2022-11-20T08:34:32;93098.00;;;8.20
41940;BMP180;23057;48.554;14.454;2022-11-20T08:37:03;93099.00;;;8.30
41940;BMP180;23057;48.554;14.454;2022-11-20T08:39:34;93102.00;;;8.30
41940;BMP180;23057;48.554;14.454;2022-11-20T08:42:08;93099.00;;;8.40
41940;BMP180;23057;48.554;14.454;2022-11-20T08:44:39;93101.00;;;8.40
41940;BMP180;23057;48.554;14.454;2022-11-20T08:47:10;93108.00;;;8.40
41940;BMP180;23057;48.554;14.454;2022-11-20T08:49:41;93101.00;;;8.50
41940;BMP180;23057;48.554;14.454;2022-11-20T08:52:11;93102.00;;;8.50
41940;BMP180;23057;48.554;14.454;2022-11-20T08:54:42;93109.00;;;8.60
41940;BMP180;23057;48.554;14.454;2022-11-20T08:57:13;93118.00;;;8.70
41940;BMP180;23057;48.554;14.454;2022-11-20T08:59:44;93113.00;;;8.70
41940;BMP180;23057;48.554;14.454;2022-11-20T09:02:15;93105.00;;;8.80
41940;BMP180;23057;48.554;14.454;2022-11-20T09:04:46;93107.00;;;8.80
41940;BMP180;23057;48.554;14.454;2022-11-20T09:07:16;93104.00;;;8.90
41940;BMP180;23057;48.554;14.454;2022-11-20T09:09:47;93101.00;;;8.90
41940;BMP180;23057;48.554;14.454;2022-11-20T09:12:18;93101.00;;;9.00
41940;BMP180;23057;48.554;14.454;2022-11-20T09:14:49;93093.00;;;9.00
41940;BMP180;23057;48.554;14.454;2022-11-20T09:17:20;93104.00;;;9.10
41940;BMP180;23057;48.554;14.454;2022-11-20T09:19:51;93101.00;;;9.20
41940;BMP180;23057;48.554;14.454;2022-11-20T09:22:24;93106.00;;;9.30
41940;BMP180;23057;48.554;14.454;2022-11-20T09:24:55;93103.00;;;9.30
41940;BMP180;23057;48.554;14.454;2022-11-20T09:27:26;93106.00;;;9.40
41940;BMP180;23057;48.554;14.454;2022-11-20T09:29:57;93103.00;;;9.40
41940;BMP180;23057;48.554;14.454;2022-11-20T09:32:28;93097.00;;;9.40
41940;BMP180;23057;48.554;14.454;2022-11-20T09:34:58;93106.00;;;9.40
41940;BMP180;23057;48.554;14.454;2022-11-20T09:37:29;93100.00;;;9.40
41940;BMP180;23057;48.554;14.454;2022-11-20T09:40:00;93093.00;;;9.40
41940;BMP180;23057;48.554;14.454;2022-11-20T09:43:08;93093.00;;;9.40
41940;BMP180;23057;48.554;14.454;2022-11-20T09:51:52;93097.00;;;9.30
41940;BMP180;23057;48.554;14.454;2022-11-20T09:54:54;93094.00;;;9.30
41940;BMP180;23057;48.554;14.454;2022-11-20T09:57:35;93086.00;;;9.30
41940;BMP180;23057;48.554;14.454;2022-11-20T10:00:14;93094.00;;;9.30
41940;BMP180;23057;48.554;14.454;2022-11-20T10:03:16;93089.00;;;9.40
41940;BMP180;23057;48.554;14.454;2022-11-20T10:05:54;93087.00;;;9.50
41940;BMP180;23057;48.554;14.454;2022-11-20T10:09:02;93087.00;;;9.50
41940;BMP180;23057;48.554;14.454;2022-11-20T10:18:27;93068.00;;;9.80
41940;BMP180;23057;48.554;14.454;2022-11-20T10:25:13;93087.00;;;10.10
41940;BMP180;23057;48.554;14.454;2022-11-20T10:28:30;93078.00;;;10.10
41940;BMP180;23057;48.554;14.454;2022-11-20T10:31:33;93077.00;;;10.10
41940;BMP180;23057;48.554;14.454;2022-11-20T10:37:01;93065.00;;;10.10
41940;BMP180;23057;48.554;14.454;2022-11-20T10:43:09;93071.00;;;10.30
41940;BMP180;23057;48.554;14.454;2022-11-20T10:46:15;93065.00;;;10.40
41940;BMP180;23057;48.554;14.454;2022-11-20T10:48:56;93079.00;;;10.40
41940;BMP180;23057;48.554;14.454;2022-11-20T10:51:44;93079.00;;;10.50
41940;BMP180;23057;48.554;14.454;2022-11-20T10:54:43;93075.00;;;10.50
41940;BMP180;23057;48.554;14.454;2022-11-20T10:58:10;93077.00;;;10.50
41940;BMP180;23057;48.554;14.454;2022-11-20T11:00:50;93074.00;;;10.50
41940;BMP180;23057;48.554;14.454;2022-11-20T11:03:29;93081.00;;;10.50
41940;BMP180;23057;48.554;14.454;2022-11-20T11:06:42;93074.00;;;10.50
41940;BMP180;23057;48.554;14.454;2022-11-20T11:09:32;93075.00;;;10.50
41940;BMP180;23057;48.554;14.454;2022-11-20T11:12:10;93080.00;;;10.60
41940;BMP180;23057;48.554;14.454;2022-11-20T11:14:54;93067.00;;;10.60
41940;BMP180;23057;48.554;14.454;2022-11-20T11:17:32;93067.00;;;10.70
41940;BMP180;23057;48.554;14.454;2022-11-20T11:23:27;93061.00;;;10.60
41940;BMP180;23057;48.554;14.454;2022-11-20T11:26:06;93063.00;;;10.60
41940;BMP180;23057;48.554;14.454;2022-11-20T11:28:58;93065.00;;;10.60
41940;BMP180;23057;48.554;14.454;2022-11-20T11:31:34;93067.00;;;10.60
41940;BMP180;23057;48.554;14.454;2022-11-20T11:34:15;93066.00;;;10.70
41940;BMP180;23057;48.554;14.454;2022-11-20T11:36:58;93070.00;;;10.70
41940;BMP180;23057;48.554;14.454;2022-11-20T11:39:34;93061.00;;;10.70
41940;BMP180;23057;48.554;14.454;2022-11-20T11:42:05;93067.00;;;10.70
41940;BMP180;23057;48.554;14.454;2022-11-20T11:44:36;93064.00;;;10.70
41940;BMP180;23057;48.554;14.454;2022-11-20T11:50:24;93055.00;;;10.70
41940;BMP180;23057;48.554;14.454;2022-11-20T11:53:13;93054.00;;;10.80
41940;BMP180;23057;48.554;14.454;2022-11-20T11:56:11;93060.00;;;10.70
41940;BMP180;23057;48.554;14.454;2022-11-20T11:58:48;93055.00;;;10.70
41940;BMP180;23057;48.554;14.454;2022-11-20T12:01:45;93058.00;;;10.70
41940;BMP180;23057;48.554;14.454;2022-11-20T12:09:57;93055.00;;;10.80
41940;BMP180;23057;48.554;14.454;2022-11-20T12:12:37;93057.00;;;10.80
41940;BMP180;23057;48.554;14.454;2022-11-20T12:15:24;93048.00;;;10.80
41940;BMP180;23057;48.554;14.454;2022-11-20T12:18:00;93054.00;;;10.80
41940;BMP180;23057;48.554;14.454;2022-11-20T12:20:41;93053.00;;;10.90
41940;BMP180;23057;48.554;14.454;2022-11-20T12:27:02;93056.00;;;10.90
41940;BMP180;23057;48.554;14.454;2022-11-20T12:36:07;93046.00;;;10.80
41940;BMP180;23057;48.554;14.454;2022-11-20T12:58:10;93036.00;;;10.80
41940;BMP180;23057;48.554;14.454;2022-11-20T13:07:10;93024.00;;;10.70
41940;BMP180;23057;48.554;14.454;2022-11-20T13:09:47;93019.00;;;10.70
41940;BMP180;23057;48.554;14.454;2022-11-20T13:15:52;93020.00;;;10.70
41940;BMP180;23057;48.554;14.454;2022-11-20T13:18:38;93018.00;;;10.70
41940;BMP180;23057;48.554;14.454;2022-11-20T13:21:44;93010.00;;;10.80
41940;BMP180;23057;48.554;14.454;2022-11-20T13:24:21;93022.00;;;10.80
41940;BMP180;23057;48.554;14.454;2022-11-20T13:29:44;93010.00;;;10.80
41940;BMP180;23057;48.554;14.454;2022-11-20T13:32:18;93000.00;;;10.90
41940;BMP180;23057;48.554;14.454;2022-11-20T13:34:54;93009.00;;;10.90
41940;BMP180;23057;48.554;14.454;2022-11-20T13:37:37;93007.00;;;10.90
41940;BMP180;23057;48.554;14.454;2022-11-20T13:42:45;93009.00;;;10.90
41940;BMP180;23057;48.554;14.454;2022-11-20T13:45:31;93004.00;;;10.90
41940;BMP180;23057;48.554;14.454;2022-11-20T13:48:22;93001.00;;;10.90
41940;BMP180;23057;48.554;14.454;2022-11-20T14:03:18;92995.00;;;10.90
41940;BMP180;23057;48.554;14.454;2022-11-20T14:06:05;92993.00;;;10.90
41940;BMP180;23057;48.554;14.454;2022-11-20T14:08:47;92997.00;;;11.00
41940;BMP180;23057;48.554;14.454;2022-11-20T14:11:25;92998.00;;;11.00
41940;BMP180;23057;48.554;14.454;2022-11-20T14:14:01;93002.00;;;11.00
41940;BMP180;23057;48.554;14.454;2022-11-20T14:16:47;92996.00;;;11.00
41940;BMP180;23057;48.554;14.454;2022-11-20T14:22:09;92988.00;;;11.10
41940;BMP180;23057;48.554;14.454;2022-11-20T14:25:00;92993.00;;;11.00
41940;BMP180;23057;48.554;14.454;2022-11-20T14:28:00;92986.00;;;11.00
41940;BMP180;23057;48.554;14.454;2022-11-20T14:30:44;92986.00;;;10.90
41940;BMP180;23057;48.554;14.454;2022-11-20T14:33:17;92987.00;;;10.90
41940;BMP180;23057;48.554;14.454;2022-11-20T14:35:54;92989.00;;;10.80
41940;BMP180;23057;48.554;14.454;2022-11-20T14:38:31;92989.00;;;10.80
41940;BMP180;23057;48.554;14.454;2022-11-20T14:41:19;92989.00;;;10.70
41940;BMP180;23057;48.554;14.454;2022-11-20T14:43:59;92985.00;;;10.70
41940;BMP180;23057;48.554;14.454;2022-11-20T14:46:32;92991.00;;;10.60
41940;BMP180;23057;48.554;14.454;2022-11-20T14:49:04;92990.00;;;10.60
41940;BMP180;23057;48.554;14.454;2022-11-20T14:51:40;93004.00;;;10.60
41940;BMP180;23057;48.554;14.454;2022-11-20T14:54:18;93004.00;;;10.60
41940;BMP180;23057;48.554;14.454;2022-11-20T14:59:34;92990.00;;;10.50
41940;BMP180;23057;48.554;14.454;2022-11-20T15:02:11;92993.00;;;10.50
41940;BMP180;23057;48.554;14.454;2022-11-20T15:04:59;92992.00;;;10.50
41940;BMP180;23057;48.554;14.454;2022-11-20T15:07:44;92999.00;;;10.50
41940;BMP180;23057;48.554;14.454;2022-11-20T15:10:27;92996.00;;;10.40
41940;BMP180;23057;48.554;14.454;2022-11-20T15:13:25;93002.00;;;10.50
41940;BMP180;23057;48.554;14.454;2022-11-20T15:16:03;93000.00;;;10.40
41940;BMP180;23057;48.554;14.454;2022-11-20T15:19:00;93000.00;;;10.50
41940;BMP180;23057;48.554;14.454;2022-11-20T15:21:33;92993.00;;;10.50
41940;BMP180;23057;48.554;14.454;2022-11-20T15:24:09;92989.00;;;10.50
41940;BMP180;23057;48.554;14.454;2022-11-20T15:26:40;92991.00;;;10.50
41940;BMP180;23057;48.554;14.454;2022-11-20T15:29:15;92988.00;;;10.50
41940;BMP180;23057;48.554;14.454;2022-11-20T15:31:49;92988.00;;;10.50
41940;BMP180;23057;48.554;14.454;2022-11-20T15:34:21;92988.00;;;10.50
41940;BMP180;23057;48.554;14.454;2022-11-20T15:36:52;92990.00;;;10.60
41940;BMP180;23057;48.554;14.454;2022-11-20T15:39:23;92991.00;;;10.60
41940;BMP180;23057;48.554;14.454;2022-11-20T15:41:54;92992.00;;;10.60
41940;BMP180;23057;48.554;14.454;2022-11-20T15:44:25;92992.00;;;10.50
41940;BMP180;23057;48.554;14.454;2022-11-20T15:46:56;92992.00;;;10.60
41940;BMP180;23057;48.554;14.454;2022-11-20T15:49:27;92992.00;;;10.50
41940;BMP180;23057;48.554;14.454;2022-11-20T15:51:58;92996.00;;;10.60
41940;BMP180;23057;48.554;14.454;2022-11-20T15:54:28;92999.00;;;10.60
41940;BMP180;23057;48.554;14.454;2022-11-20T15:56:59;92999.00;;;10.60
41940;BMP180;23057;48.554;14.454;2022-11-20T15:59:31;92994.00;;;10.60
41940;BMP180;23057;48.554;14.454;2022-11-20T16:02:02;93002.00;;;10.60
41940;BMP180;23057;48.554;14.454;2022-11-20T16:04:33;92983.00;;;10.60
41940;BMP180;23057;48.554;14.454;2022-11-20T16:07:04;92989.00;;;10.60
41940;BMP180;23057;48.554;14.454;2022-11-20T16:09:35;92992.00;;;10.60
41940;BMP180;23057;48.554;14.454;2022-11-20T16:12:08;92992.00;;;10.60
41940;BMP180;23057;48.554;14.454;2022-11-20T16:15:00;92996.00;;;10.60
41940;BMP180;23057;48.554;14.454;2022-11-20T16:17:51;93002.00;;;10.60
41940;BMP180;23057;48.554;14.454;2022-11-20T16:20:22;92991.00;;;10.60
41940;BMP180;23057;48.554;14.454;2022-11-20T16:22:53;92993.00;;;10.60
41940;BMP180;23057;48.554;14.454;2022-11-20T16:25:24;92989.00;;;10.60
41940;BMP180;23057;48.554;14.454;2022-11-20T16:27:54;92991.00;;;10.60
41940;BMP180;23057;48.554;14.454;2022-11-20T16:30:25;92985.00;;;10.60